createdAt,value
2019-02-20T00:01:43.217Z,17.27
2019-02-20T00:04:09.484Z,18.07
2019-02-20T00:06:35.941Z,16.05
2019-02-20T00:09:03.686Z,17.65
2019-02-20T00:11:29.962Z,17.42
2019-02-20T00:13:56.249Z,16.67
2019-02-20T00:16:22.526Z,18.07
2019-02-20T00:18:48.852Z,18.75
2019-02-20T00:21:15.190Z,17.85
2019-02-20T00:23:41.452Z,17.80
2019-02-20T00:26:07.736Z,17.12
2019-02-20T00:28:33.992Z,17.90
2019-02-20T00:31:00.259Z,15.30
2019-02-20T00:33:26.542Z,17.98
2019-02-20T00:35:52.798Z,18.98
2019-02-20T00:38:19.184Z,17.48
2019-02-20T00:40:45.725Z,19.30
2019-02-20T00:43:12.056Z,19.40
2019-02-20T00:45:49.098Z,19.35
2019-02-20T00:48:20.020Z,17.90
2019-02-20T00:50:48.308Z,16.55
2019-02-20T00:53:19.521Z,17.92
2019-02-20T00:55:45.793Z,17.23
2019-02-20T00:58:12.077Z,15.85
2019-02-20T01:00:38.337Z,16.70
2019-02-20T01:03:04.619Z,16.15
2019-02-20T01:05:30.946Z,16.35
2019-02-20T01:07:57.200Z,16.35
2019-02-20T01:10:23.504Z,14.03
2019-02-20T01:12:49.811Z,16.02
2019-02-20T01:15:16.074Z,15.83
2019-02-20T01:17:42.443Z,14.70
2019-02-20T01:20:08.719Z,15.32
2019-02-20T01:22:35.000Z,14.68
2019-02-20T01:25:01.258Z,14.70
2019-02-20T01:27:27.514Z,14.60
2019-02-20T01:29:53.759Z,15.00
2019-02-20T01:32:20.037Z,14.53
2019-02-20T01:34:46.306Z,14.45
2019-02-20T01:37:12.646Z,13.85
2019-02-20T01:39:38.894Z,13.20
2019-02-20T01:42:05.157Z,14.18
2019-02-20T01:44:31.422Z,14.15
2019-02-20T01:46:57.826Z,13.35
2019-02-20T01:49:24.066Z,12.78
2019-02-20T01:51:50.549Z,12.95
2019-02-20T01:54:16.728Z,11.85
2019-02-20T01:56:43.399Z,12.90
2019-02-20T01:59:09.642Z,11.33
2019-02-20T02:01:35.944Z,11.68
2019-02-20T02:04:02.696Z,12.37
2019-02-20T02:06:28.951Z,13.28
2019-02-20T02:08:55.245Z,11.73
2019-02-20T02:11:21.492Z,11.40
2019-02-20T02:13:47.731Z,11.85
2019-02-20T02:16:14.006Z,12.55
2019-02-20T02:18:40.263Z,12.43
2019-02-20T02:21:06.521Z,12.73
2019-02-20T02:23:32.803Z,11.43
2019-02-20T02:25:59.146Z,11.73
2019-02-20T02:28:25.386Z,12.10
2019-02-20T02:30:51.699Z,12.53
2019-02-20T02:33:18.035Z,12.10
2019-02-20T02:35:44.297Z,12.20
2019-02-20T02:38:10.610Z,10.70
2019-02-20T02:40:36.859Z,11.40
2019-02-20T02:43:03.111Z,11.80
2019-02-20T02:45:29.440Z,12.47
2019-02-20T02:47:55.734Z,12.95
2019-02-20T02:50:22.075Z,13.20
2019-02-20T02:52:48.323Z,11.80
2019-02-20T02:55:14.602Z,13.83
2019-02-20T02:57:40.870Z,11.68
2019-02-20T03:00:09.113Z,13.18
2019-02-20T03:02:35.379Z,14.35
2019-02-20T03:05:01.761Z,14.33
2019-02-20T03:07:28.040Z,14.90
2019-02-20T03:09:54.336Z,13.38
2019-02-20T03:12:20.676Z,14.55
2019-02-20T03:14:46.872Z,15.83
2019-02-20T03:17:13.180Z,15.25
2019-02-20T03:19:39.428Z,14.25
2019-02-20T03:22:05.794Z,15.35
2019-02-20T03:24:32.042Z,14.18
2019-02-20T03:26:58.213Z,16.15
2019-02-20T03:29:24.483Z,16.87
2019-02-20T03:31:50.928Z,17.73
2019-02-20T03:34:17.202Z,17.10
2019-02-20T03:36:43.417Z,19.95
2019-02-20T03:39:09.706Z,22.05
2019-02-20T03:41:36.206Z,21.27
2019-02-20T03:44:02.441Z,22.30
2019-02-20T03:46:28.741Z,23.35
2019-02-20T03:48:55.280Z,11.50
2019-02-20T03:51:21.589Z,24.72
2019-02-20T03:53:51.554Z,24.35
2019-02-20T03:56:15.927Z,24.15
2019-02-20T03:58:42.155Z,26.07
2019-02-20T04:01:08.413Z,26.45
2019-02-20T04:03:34.733Z,27.00
2019-02-20T04:06:01.037Z,26.15
2019-02-20T04:08:27.307Z,27.52
2019-02-20T04:10:53.755Z,26.95
2019-02-20T04:13:20.022Z,25.43
2019-02-20T04:15:46.256Z,27.45
2019-02-20T04:18:12.643Z,27.30
2019-02-20T04:20:38.975Z,26.52
2019-02-20T04:23:05.271Z,26.70
2019-02-20T04:25:31.536Z,27.98
2019-02-20T04:27:57.795Z,27.20
2019-02-20T04:30:23.955Z,27.00
2019-02-20T04:32:50.219Z,26.70
2019-02-20T04:35:16.461Z,27.22
2019-02-20T04:37:42.873Z,26.40
2019-02-20T04:40:09.165Z,24.82
2019-02-20T04:42:35.422Z,26.27
2019-02-20T04:45:01.880Z,25.72
2019-02-20T04:47:28.232Z,24.52
2019-02-20T04:49:54.459Z,24.57
2019-02-20T04:52:20.801Z,26.25
2019-02-20T04:54:47.061Z,26.25
2019-02-20T04:57:13.408Z,25.37
2019-02-20T04:59:39.682Z,25.20
2019-02-20T05:02:05.941Z,25.52
2019-02-20T05:04:32.258Z,24.55
2019-02-20T05:06:58.513Z,21.77
2019-02-20T05:09:24.787Z,23.77
2019-02-20T05:11:51.046Z,22.35
2019-02-20T05:14:17.327Z,20.95
2019-02-20T05:16:43.628Z,23.60
2019-02-20T05:19:09.877Z,24.10
2019-02-20T05:21:39.354Z,22.55
2019-02-20T05:24:05.605Z,24.65
2019-02-20T05:26:31.887Z,25.00
2019-02-20T05:28:58.103Z,25.45
2019-02-20T05:31:24.396Z,23.30
2019-02-20T05:33:50.780Z,21.35
2019-02-20T05:36:16.992Z,23.45
2019-02-20T05:38:43.539Z,25.45
2019-02-20T05:41:09.814Z,23.07
2019-02-20T05:43:36.062Z,24.47
2019-02-20T05:46:02.518Z,25.90
2019-02-20T05:48:28.752Z,26.40
2019-02-20T05:50:54.978Z,26.12
2019-02-20T05:53:21.279Z,23.40
2019-02-20T05:55:47.525Z,26.60
2019-02-20T05:58:13.961Z,27.07
2019-02-20T06:00:40.203Z,27.62
2019-02-20T06:03:06.480Z,24.05
2019-02-20T06:05:32.746Z,25.40
2019-02-20T06:07:59.068Z,25.25
2019-02-20T06:10:25.592Z,26.57
2019-02-20T06:12:54.994Z,26.17
2019-02-20T06:15:21.318Z,24.32
2019-02-20T06:17:47.579Z,27.75
2019-02-20T06:20:13.898Z,23.20
2019-02-20T06:22:40.218Z,24.87
2019-02-20T06:25:06.687Z,27.42
2019-02-20T06:27:33.046Z,26.65
2019-02-20T06:29:59.328Z,12.45
2019-02-20T06:32:25.586Z,24.55
2019-02-20T06:34:51.876Z,23.25
2019-02-20T06:37:18.197Z,29.00
2019-02-20T06:39:44.456Z,29.90
2019-02-20T06:42:10.747Z,29.45
2019-02-20T06:44:37.018Z,27.27
2019-02-20T06:47:03.427Z,31.00
2019-02-20T06:49:29.741Z,28.32
2019-02-20T06:51:56.434Z,28.20
2019-02-20T06:54:24.899Z,30.70
2019-02-20T06:56:51.201Z,31.82
2019-02-20T06:59:17.514Z,31.15
2019-02-20T07:01:43.920Z,31.77
2019-02-20T07:04:10.329Z,33.15
2019-02-20T07:06:40.341Z,32.23
2019-02-20T07:09:39.388Z,29.65
2019-02-20T07:12:18.278Z,31.25
2019-02-20T07:14:54.778Z,32.25
2019-02-20T07:17:39.649Z,31.52
2019-02-20T07:20:33.750Z,34.13
2019-02-20T07:23:18.439Z,33.78
2019-02-20T07:26:00.138Z,34.80
2019-02-20T07:29:05.068Z,31.20
2019-02-20T07:31:31.480Z,32.53
2019-02-20T07:33:57.726Z,34.08
2019-02-20T07:36:24.015Z,35.63
2019-02-20T07:38:50.240Z,34.60
2019-02-20T07:41:16.539Z,35.83
2019-02-20T07:43:42.822Z,30.88
2019-02-20T07:46:09.185Z,35.25
2019-02-20T07:48:35.440Z,35.45
2019-02-20T07:51:01.845Z,34.90
2019-02-20T07:53:28.075Z,35.00
2019-02-20T07:55:54.319Z,34.30
2019-02-20T07:58:20.713Z,34.18
2019-02-20T08:00:46.953Z,35.78
2019-02-20T08:03:13.222Z,35.55
2019-02-20T08:05:39.520Z,34.92
2019-02-20T08:08:06.076Z,34.20
2019-02-20T08:10:32.362Z,36.42
2019-02-20T08:12:58.900Z,37.10
2019-02-20T08:15:25.420Z,35.43
2019-02-20T08:17:51.772Z,36.17
2019-02-20T08:20:18.101Z,35.35
2019-02-20T08:22:44.420Z,35.08
2019-02-20T08:25:10.752Z,36.88
2019-02-20T08:27:37.034Z,32.85
2019-02-20T08:30:07.006Z,33.73
2019-02-20T08:32:33.273Z,34.78
2019-02-20T08:34:59.516Z,34.80
2019-02-20T08:37:25.896Z,34.15
2019-02-20T08:39:52.155Z,33.02
2019-02-20T08:42:18.439Z,34.92
2019-02-20T08:44:44.699Z,34.40
2019-02-20T08:47:11.391Z,31.77
2019-02-20T08:49:37.666Z,33.98
2019-02-20T08:52:03.919Z,35.08
2019-02-20T08:54:30.179Z,34.63
2019-02-20T08:56:56.413Z,33.80
2019-02-20T08:59:22.698Z,32.85
2019-02-20T09:01:48.959Z,32.78
2019-02-20T09:04:15.357Z,34.50
2019-02-20T09:06:41.671Z,32.53
2019-02-20T09:09:07.968Z,34.20
2019-02-20T09:11:34.265Z,31.10
2019-02-20T09:14:00.932Z,33.28
2019-02-20T09:16:27.192Z,33.58
2019-02-20T09:18:53.483Z,35.63
2019-02-20T09:21:19.809Z,33.63
2019-02-20T09:23:46.033Z,34.43
2019-02-20T09:26:12.343Z,34.60
2019-02-20T09:28:38.633Z,36.60
2019-02-20T09:31:04.987Z,35.03
2019-02-20T09:33:31.283Z,36.15
2019-02-20T09:35:57.569Z,33.60
2019-02-20T09:38:23.824Z,32.05
2019-02-20T09:40:50.114Z,37.48
2019-02-20T09:43:16.481Z,36.68
2019-02-20T09:45:44.529Z,38.10
2019-02-20T09:48:10.865Z,38.30
2019-02-20T09:50:37.254Z,39.45
2019-02-20T09:53:03.504Z,35.20
2019-02-20T09:55:29.799Z,38.85
2019-02-20T09:57:56.093Z,37.23
2019-02-20T10:00:22.352Z,39.75
2019-02-20T10:02:48.659Z,37.17
2019-02-20T10:05:15.002Z,38.58
2019-02-20T10:07:41.253Z,35.50
2019-02-20T10:10:08.867Z,39.33
2019-02-20T10:12:35.207Z,36.58
2019-02-20T10:15:02.282Z,35.25
2019-02-20T10:17:48.432Z,36.15
2019-02-20T10:20:14.727Z,38.23
2019-02-20T10:22:41.009Z,39.45
2019-02-20T10:25:09.466Z,38.58
2019-02-20T10:27:35.713Z,37.33
2019-02-20T10:30:03.229Z,38.30
2019-02-20T10:32:29.496Z,36.80
2019-02-20T10:34:55.773Z,37.05
2019-02-20T10:37:22.023Z,37.58
2019-02-20T10:39:48.174Z,36.53
2019-02-20T10:42:14.428Z,37.45
2019-02-20T10:44:40.705Z,37.58
2019-02-20T10:47:06.954Z,35.83
2019-02-20T10:49:33.254Z,37.05
2019-02-20T10:52:00.357Z,39.27
2019-02-20T10:54:26.772Z,40.10
2019-02-20T10:56:53.203Z,36.73
2019-02-20T10:59:19.439Z,37.00
2019-02-20T11:01:45.707Z,35.88
2019-02-20T11:04:11.969Z,37.67
2019-02-20T11:06:38.225Z,33.85
2019-02-20T11:09:04.519Z,37.88
2019-02-20T11:11:30.922Z,36.50
2019-02-20T11:13:57.244Z,37.20
2019-02-20T11:16:23.501Z,36.25
2019-02-20T11:18:49.707Z,38.53
2019-02-20T11:21:16.034Z,35.25
2019-02-20T11:23:42.276Z,36.25
2019-02-20T11:26:08.535Z,36.95
2019-02-20T11:28:34.924Z,36.08
2019-02-20T11:31:10.427Z,38.13
2019-02-20T11:33:36.696Z,36.48
2019-02-20T11:36:03.030Z,36.33
2019-02-20T11:38:30.890Z,34.43
2019-02-20T11:40:57.362Z,36.90
2019-02-20T11:43:23.628Z,35.70
2019-02-20T11:45:49.918Z,33.95
2019-02-20T11:48:16.148Z,35.23
2019-02-20T11:50:42.438Z,35.33
2019-02-20T11:53:08.770Z,35.05
2019-02-20T11:55:35.041Z,35.83
2019-02-20T11:58:01.312Z,36.95
2019-02-20T12:00:27.596Z,36.53
2019-02-20T12:02:53.845Z,38.10
2019-02-20T12:05:20.125Z,38.23
2019-02-20T12:07:46.351Z,39.08
2019-02-20T12:10:14.840Z,37.13
2019-02-20T12:12:41.124Z,34.83
2019-02-20T12:15:08.102Z,33.45
2019-02-20T12:17:34.345Z,33.28
2019-02-20T12:20:00.589Z,34.80
2019-02-20T12:22:27.067Z,34.95
2019-02-20T12:24:54.836Z,34.60
2019-02-20T12:27:21.162Z,35.05
2019-02-20T12:29:47.444Z,39.23
2019-02-20T12:32:13.682Z,40.63
2019-02-20T12:34:39.966Z,42.33
2019-02-20T12:37:06.210Z,41.50
2019-02-20T12:39:32.504Z,44.55
2019-02-20T12:41:58.788Z,45.60
2019-02-20T12:44:25.043Z,46.23
2019-02-20T12:46:51.298Z,45.08
2019-02-20T12:49:17.994Z,47.53
2019-02-20T12:51:44.262Z,50.80
2019-02-20T12:54:10.690Z,49.23
2019-02-20T12:56:43.749Z,53.05
2019-02-20T12:59:07.734Z,52.43
2019-02-20T13:01:35.387Z,53.45
2019-02-20T13:04:01.641Z,53.30
2019-02-20T13:06:29.746Z,55.43
2019-02-20T13:08:55.953Z,53.70
2019-02-20T13:11:22.244Z,50.60
2019-02-20T13:13:49.134Z,49.03
2019-02-20T13:16:15.413Z,50.65
2019-02-20T13:18:41.873Z,51.70
2019-02-20T13:21:08.118Z,52.95
2019-02-20T13:23:34.450Z,50.52
2019-02-20T13:26:00.705Z,50.10
2019-02-20T13:28:27.000Z,49.85
2019-02-20T13:30:53.264Z,48.50
2019-02-20T13:33:19.510Z,49.58
2019-02-20T13:35:45.764Z,46.00
2019-02-20T13:38:12.087Z,43.52
2019-02-20T13:40:38.340Z,41.02
2019-02-20T13:43:04.624Z,37.42
2019-02-20T13:45:30.997Z,38.13
2019-02-20T13:47:57.259Z,38.45
2019-02-20T13:50:23.694Z,36.63
2019-02-20T13:52:52.410Z,35.92
2019-02-20T13:55:19.150Z,35.15
2019-02-20T13:57:45.424Z,33.88
2019-02-20T14:00:13.403Z,36.05
2019-02-20T14:02:39.862Z,35.48
2019-02-20T14:05:07.438Z,37.10
2019-02-20T14:07:33.702Z,37.13
2019-02-20T14:10:00.281Z,34.25
2019-02-20T14:12:26.436Z,36.13
2019-02-20T14:14:52.677Z,36.58
2019-02-20T14:17:26.407Z,33.55
2019-02-20T14:19:47.022Z,36.40
2019-02-20T14:22:13.257Z,35.33
2019-02-20T14:24:39.551Z,35.43
2019-02-20T14:27:10.753Z,33.85
2019-02-20T14:29:33.870Z,34.48
2019-02-20T14:32:00.157Z,33.75
2019-02-20T14:34:26.405Z,34.23
2019-02-20T14:36:52.662Z,31.60
2019-02-20T14:39:18.929Z,33.28
2019-02-20T14:41:45.201Z,31.45
2019-02-20T14:44:11.474Z,34.98
2019-02-20T14:46:37.732Z,37.17
2019-02-20T14:49:04.065Z,35.52
2019-02-20T14:51:30.874Z,36.68
2019-02-20T14:53:57.122Z,38.00
2019-02-20T14:56:23.480Z,38.25
2019-02-20T14:58:49.731Z,38.60
2019-02-20T15:01:15.987Z,38.50
2019-02-20T15:03:42.258Z,36.58
2019-02-20T15:06:08.506Z,38.35
2019-02-20T15:08:34.965Z,34.08
2019-02-20T15:11:01.509Z,36.73
2019-02-20T15:13:27.778Z,35.90
2019-02-20T15:15:54.086Z,36.35
2019-02-20T15:18:20.365Z,37.10
2019-02-20T15:20:46.651Z,36.28
2019-02-20T15:23:12.912Z,34.67
2019-02-20T15:25:39.296Z,33.15
2019-02-20T15:28:05.628Z,35.30
2019-02-20T15:30:31.872Z,30.75
2019-02-20T15:32:58.377Z,31.25
2019-02-20T15:35:24.801Z,31.25
2019-02-20T15:37:51.052Z,31.70
2019-02-20T15:40:17.314Z,29.85
2019-02-20T15:42:43.729Z,29.70
2019-02-20T15:45:10.397Z,27.45
2019-02-20T15:47:36.712Z,26.27
2019-02-20T15:50:06.457Z,27.07
2019-02-20T15:52:32.927Z,25.92
2019-02-20T15:54:59.489Z,26.20
2019-02-20T15:57:25.759Z,24.45
2019-02-20T15:59:51.983Z,26.87
2019-02-20T16:02:18.297Z,24.90
2019-02-20T16:04:44.529Z,24.25
2019-02-20T16:07:10.885Z,25.75
2019-02-20T16:09:37.132Z,24.32
2019-02-20T16:12:03.717Z,25.30
2019-02-20T16:14:29.946Z,24.75
2019-02-20T16:16:56.241Z,24.57
2019-02-20T16:19:22.537Z,23.67
2019-02-20T16:21:48.774Z,23.55
2019-02-20T16:24:15.100Z,23.62
2019-02-20T16:26:41.367Z,19.92
2019-02-20T16:29:07.628Z,18.80
2019-02-20T16:31:33.889Z,17.40
2019-02-20T16:34:00.730Z,16.07
2019-02-20T16:36:27.020Z,15.55
2019-02-20T16:38:53.322Z,14.55
2019-02-20T16:41:24.439Z,13.68
2019-02-20T16:43:50.694Z,13.83
2019-02-20T16:46:17.059Z,12.20
2019-02-20T16:48:43.343Z,12.90
2019-02-20T16:51:09.609Z,11.93
2019-02-20T16:53:36.166Z,11.78
2019-02-20T16:56:04.310Z,10.60
2019-02-20T16:58:30.608Z,11.70
2019-02-20T17:00:56.875Z,11.63
2019-02-20T17:03:23.119Z,11.43
2019-02-20T17:05:49.354Z,11.73
2019-02-20T17:08:15.859Z,11.15
2019-02-20T17:10:42.133Z,10.70
2019-02-20T17:13:08.804Z,9.98
2019-02-20T17:15:35.048Z,9.60
2019-02-20T17:18:01.805Z,9.08
2019-02-20T17:20:28.160Z,8.45
2019-02-20T17:22:54.989Z,9.40
2019-02-20T17:25:24.372Z,8.00
2019-02-20T17:27:50.688Z,8.33
2019-02-20T17:30:17.947Z,8.80
2019-02-20T17:32:44.527Z,9.15
2019-02-20T17:35:10.783Z,9.18
2019-02-20T17:37:37.108Z,8.35
2019-02-20T17:40:05.454Z,7.72
2019-02-20T17:42:31.757Z,8.25
2019-02-20T17:44:58.040Z,8.80
2019-02-20T17:47:24.433Z,8.00
2019-02-20T17:49:50.844Z,8.13
2019-02-20T17:52:17.487Z,8.05
2019-02-20T17:54:46.206Z,7.92
2019-02-20T17:57:13.034Z,7.90
2019-02-20T17:59:39.347Z,7.28
2019-02-20T18:02:05.719Z,7.65
2019-02-20T18:04:32.016Z,7.33
2019-02-20T18:06:58.359Z,7.03
2019-02-20T18:09:24.695Z,7.50
2019-02-20T18:11:51.032Z,6.92
2019-02-20T18:14:17.282Z,7.15
2019-02-20T18:16:43.712Z,6.85
2019-02-20T18:19:10.004Z,7.53
2019-02-20T18:21:38.772Z,7.33
2019-02-20T18:24:05.078Z,7.75
2019-02-20T18:26:31.474Z,8.05
2019-02-20T18:28:57.835Z,7.80
2019-02-20T18:31:24.092Z,8.05
2019-02-20T18:33:50.388Z,7.95
2019-02-20T18:36:16.923Z,8.60
2019-02-20T18:38:43.145Z,7.47
2019-02-20T18:41:09.468Z,8.20
2019-02-20T18:43:35.829Z,8.10
2019-02-20T18:46:02.154Z,8.20
2019-02-20T18:48:29.293Z,9.40
2019-02-20T18:50:55.613Z,9.40
2019-02-20T18:53:21.923Z,12.10
2019-02-20T18:55:48.181Z,21.12
2019-02-20T18:58:16.272Z,15.95
2019-02-20T19:00:42.770Z,10.82
2019-02-20T19:03:09.537Z,10.05
2019-02-20T19:05:36.036Z,10.23
2019-02-20T19:08:18.326Z,9.90
2019-02-20T19:10:44.599Z,10.13
2019-02-20T19:13:32.417Z,9.33
2019-02-20T19:16:19.050Z,10.05
2019-02-20T19:19:01.739Z,9.38
2019-02-20T19:24:49.933Z,8.88
2019-02-20T19:27:53.503Z,9.18
2019-02-20T19:30:35.892Z,9.18
2019-02-20T19:33:18.124Z,8.83
2019-02-20T19:35:54.025Z,11.88
2019-02-20T19:38:28.104Z,10.85
2019-02-20T19:41:10.456Z,9.93
2019-02-20T19:43:52.353Z,9.20
2019-02-20T19:46:45.133Z,8.50
2019-02-20T19:49:24.729Z,9.20
2019-02-20T19:52:03.446Z,9.00
2019-02-20T19:54:42.190Z,9.45
2019-02-20T19:57:29.451Z,9.33
2019-02-20T20:00:19.018Z,9.33
2019-02-20T20:03:09.109Z,9.50
2019-02-20T20:05:42.371Z,10.25
2019-02-20T20:08:24.712Z,9.43
2019-02-20T20:11:00.323Z,9.50
2019-02-20T20:13:33.633Z,10.03
2019-02-20T20:16:07.093Z,10.00
2019-02-20T20:18:54.019Z,10.18
2019-02-20T20:21:24.415Z,10.05
2019-02-20T20:23:57.640Z,10.03
2019-02-20T20:26:56.769Z,10.03
2019-02-20T20:30:00.539Z,9.60
2019-02-20T20:32:36.829Z,9.95
2019-02-20T20:35:27.788Z,9.65
2019-02-20T20:38:17.862Z,9.90
2019-02-20T20:40:53.948Z,10.32
2019-02-20T20:43:39.119Z,10.32
2019-02-20T20:46:27.433Z,10.50
2019-02-20T20:49:06.665Z,10.58
2019-02-20T20:52:00.501Z,10.35
2019-02-20T20:54:52.985Z,10.03
2019-02-20T20:57:26.361Z,11.05
2019-02-20T21:00:08.726Z,10.58
2019-02-20T21:02:38.604Z,11.28
2019-02-20T21:05:17.799Z,11.28
2019-02-20T21:07:47.983Z,10.35
2019-02-20T21:10:39.834Z,11.12
2019-02-20T21:13:43.580Z,11.65
2019-02-20T21:16:16.823Z,12.30
2019-02-20T21:19:21.792Z,11.70
2019-02-20T21:22:03.743Z,12.00
2019-02-20T21:24:42.899Z,12.58
2019-02-20T21:27:19.252Z,11.80
2019-02-20T21:30:15.533Z,11.90
2019-02-20T21:32:54.240Z,12.65
2019-02-20T21:35:27.611Z,12.60
2019-02-20T21:38:06.938Z,12.82
2019-02-20T21:40:49.371Z,12.85
2019-02-20T21:43:45.485Z,12.28
2019-02-20T21:46:41.509Z,13.50
2019-02-20T21:49:38.840Z,13.40
2019-02-20T21:52:31.569Z,12.78
2019-02-20T21:55:30.879Z,13.43
2019-02-20T21:58:09.823Z,13.78
2019-02-20T22:00:57.557Z,13.48
2019-02-20T22:03:45.818Z,13.83
2019-02-20T22:06:24.564Z,14.95
2019-02-20T22:09:11.362Z,15.40
2019-02-20T22:12:02.601Z,15.55
2019-02-20T22:14:47.029Z,15.23
2019-02-20T22:17:22.929Z,14.45
2019-02-20T22:20:14.440Z,15.70
2019-02-20T22:22:47.517Z,15.48
2019-02-20T22:25:40.599Z,15.00
2019-02-20T22:28:22.160Z,15.03
2019-02-20T22:31:08.712Z,15.38
2019-02-20T22:33:47.927Z,17.32
2019-02-20T22:36:35.142Z,16.35
2019-02-20T22:39:17.347Z,15.85
2019-02-20T22:42:04.430Z,16.15
2019-02-20T22:44:57.600Z,16.62
2019-02-20T22:47:27.889Z,16.05
2019-02-20T22:50:18.792Z,17.40
2019-02-20T22:53:02.161Z,17.23
2019-02-20T22:55:47.358Z,17.32
2019-02-20T22:58:20.325Z,17.82
2019-02-20T23:01:13.961Z,19.05
2019-02-20T23:03:53.279Z,18.73
2019-02-20T23:06:28.893Z,18.52
2019-02-20T23:09:13.785Z,19.40
2019-02-20T23:11:52.800Z,18.32
2019-02-20T23:14:40.446Z,19.07
2019-02-20T23:17:06.901Z,18.90
2019-02-20T23:19:33.168Z,17.80
2019-02-20T23:21:59.438Z,19.30
2019-02-20T23:24:25.830Z,20.15
2019-02-20T23:26:52.091Z,18.57
2019-02-20T23:29:18.358Z,19.07
2019-02-20T23:31:44.608Z,19.35
2019-02-20T23:34:10.952Z,19.92
2019-02-20T23:36:37.276Z,20.08
2019-02-20T23:39:04.260Z,19.95
2019-02-20T23:41:30.556Z,20.25
2019-02-20T23:43:56.849Z,20.52
2019-02-20T23:46:23.283Z,18.75
2019-02-20T23:48:49.773Z,21.17
2019-02-20T23:51:16.060Z,20.90
2019-02-20T23:53:42.522Z,20.80
2019-02-20T23:56:08.882Z,20.92
2019-02-20T23:58:35.138Z,21.30
